createdAt,value
2017-12-24T00:01:24.036Z,100593.80
2017-12-24T00:03:52.720Z,100590.21
2017-12-24T00:06:21.405Z,100586.86
2017-12-24T00:08:50.045Z,100584.12
2017-12-24T00:11:19.491Z,100583.98
2017-12-24T00:13:48.227Z,100582.84
2017-12-24T00:16:17.685Z,100590.69
2017-12-24T00:18:46.371Z,100589.88
2017-12-24T00:21:15.253Z,100591.00
2017-12-24T00:23:43.950Z,100599.87
2017-12-24T00:26:12.566Z,100601.09
2017-12-24T00:28:41.421Z,100596.73
2017-12-24T00:31:11.080Z,100600.19
2017-12-24T00:33:40.537Z,100594.22
2017-12-24T00:36:09.265Z,100597.39
2017-12-24T00:38:38.721Z,100592.48
2017-12-24T00:41:07.351Z,100589.67
2017-12-24T00:43:36.816Z,100589.36
2017-12-24T00:46:05.503Z,100577.30
2017-12-24T00:48:34.175Z,100595.63
2017-12-24T00:51:03.022Z,100598.17
2017-12-24T00:53:31.663Z,100588.70
2017-12-24T00:56:00.246Z,100598.19
2017-12-24T00:58:28.974Z,100594.70
2017-12-24T01:00:58.432Z,100590.16
2017-12-24T01:03:27.016Z,100585.66
2017-12-24T01:05:55.896Z,100585.61
2017-12-24T01:08:24.541Z,100579.75
2017-12-24T01:10:54.000Z,100570.67
2017-12-24T01:13:22.990Z,100568.14
2017-12-24T01:15:51.622Z,100567.60
2017-12-24T01:18:21.074Z,100559.47
2017-12-24T01:20:49.870Z,100544.92
2017-12-24T01:23:18.446Z,100545.95
2017-12-24T01:25:47.032Z,100547.64
2017-12-24T01:28:16.086Z,100538.27
2017-12-24T01:30:44.810Z,100538.51
2017-12-24T01:33:13.448Z,100534.56
2017-12-24T01:35:43.411Z,100531.78
2017-12-24T01:38:11.997Z,100534.88
2017-12-24T01:40:40.684Z,100527.05
2017-12-24T01:43:09.742Z,100527.44
2017-12-24T01:45:38.461Z,100519.55
2017-12-24T01:48:08.758Z,100514.80
2017-12-24T01:50:37.571Z,100510.27
2017-12-24T01:53:06.264Z,100519.13
2017-12-24T01:55:34.840Z,100519.89
2017-12-24T01:58:03.738Z,100520.81
2017-12-24T02:00:32.320Z,100523.45
2017-12-24T02:03:01.007Z,100515.71
2017-12-24T02:05:29.793Z,100523.80
2017-12-24T02:07:58.477Z,100514.94
2017-12-24T02:10:27.063Z,100514.92
2017-12-24T02:12:55.803Z,100507.05
2017-12-24T02:15:25.296Z,100511.45
2017-12-24T02:17:54.756Z,100502.47
2017-12-24T02:20:23.606Z,100499.71
2017-12-24T02:22:53.050Z,100491.92
2017-12-24T02:25:21.640Z,100490.70
2017-12-24T02:27:50.684Z,100499.67
2017-12-24T02:30:19.379Z,100487.59
2017-12-24T02:32:48.107Z,100493.77
2017-12-24T02:35:17.134Z,100491.94
2017-12-24T02:37:45.877Z,100484.89
2017-12-24T02:40:14.569Z,100473.39
2017-12-24T02:42:43.364Z,100456.90
2017-12-24T02:45:11.947Z,100464.94
2017-12-24T02:47:40.597Z,100462.96
2017-12-24T02:50:09.468Z,100467.14
2017-12-24T02:52:38.925Z,100460.24
2017-12-24T02:55:07.611Z,100461.17
2017-12-24T02:57:36.448Z,100458.78
2017-12-24T03:00:05.913Z,100457.09
2017-12-24T03:02:34.578Z,100458.06
2017-12-24T03:05:03.424Z,100459.53
2017-12-24T03:07:32.883Z,100450.11
2017-12-24T03:10:01.460Z,100451.13
2017-12-24T03:12:30.257Z,100448.61
2017-12-24T03:14:58.891Z,100439.73
2017-12-24T03:17:28.341Z,100443.58
2017-12-24T03:19:57.223Z,100456.28
2017-12-24T03:22:25.920Z,100449.42
2017-12-24T03:24:54.606Z,100446.75
2017-12-24T03:27:23.599Z,100443.13
2017-12-24T03:29:52.998Z,100435.48
2017-12-24T03:32:21.785Z,100431.75
2017-12-24T03:34:50.776Z,100435.00
2017-12-24T03:37:19.364Z,100411.10
2017-12-24T03:39:47.950Z,100405.12
2017-12-24T03:42:17.088Z,100404.67
2017-12-24T03:44:46.551Z,100403.93
2017-12-24T03:47:15.237Z,100404.19
2017-12-24T03:49:44.022Z,100403.16
2017-12-24T03:52:12.659Z,100398.35
2017-12-24T03:54:42.106Z,100396.94
2017-12-24T03:57:11.104Z,100389.58
2017-12-24T03:59:39.785Z,100387.50
2017-12-24T04:02:08.471Z,100377.55
2017-12-24T04:04:37.266Z,100374.29
2017-12-24T04:07:05.912Z,100378.23
2017-12-24T04:09:34.638Z,100375.44
2017-12-24T04:12:03.619Z,100370.05
2017-12-24T04:14:32.320Z,100380.41
2017-12-24T04:17:00.936Z,100382.01
2017-12-24T04:19:29.625Z,100381.38
2017-12-24T04:21:59.088Z,100384.88
2017-12-24T04:24:27.714Z,100374.03
2017-12-24T04:26:57.375Z,100375.52
2017-12-24T04:29:26.068Z,100369.99
2017-12-24T04:31:54.753Z,100366.95
2017-12-24T04:34:23.340Z,100361.72
2017-12-24T04:36:52.025Z,100364.48
2017-12-24T04:39:20.601Z,100353.49
2017-12-24T04:41:49.333Z,100349.77
2017-12-24T04:44:18.797Z,100349.03
2017-12-24T04:46:47.422Z,100353.33
2017-12-24T04:49:18.012Z,100363.28
2017-12-24T04:51:46.682Z,100379.17
2017-12-24T04:54:15.377Z,100362.19
2017-12-24T04:56:44.118Z,100359.92
2017-12-24T04:59:13.468Z,100361.81
2017-12-24T05:01:42.056Z,100352.27
2017-12-24T05:04:11.049Z,100346.58
2017-12-24T05:06:39.735Z,100340.22
2017-12-24T05:09:08.356Z,100333.53
2017-12-24T05:11:37.820Z,100329.77
2017-12-24T05:14:06.466Z,100328.04
2017-12-24T05:16:35.191Z,100324.38
2017-12-24T05:19:04.952Z,100314.07
2017-12-24T05:21:33.693Z,100316.44
2017-12-24T05:24:02.378Z,100324.50
2017-12-24T05:26:31.150Z,100315.64
2017-12-24T05:28:59.751Z,100317.02
2017-12-24T05:31:28.428Z,100328.75
2017-12-24T05:33:57.320Z,100311.87
2017-12-24T05:36:26.004Z,100310.21
2017-12-24T05:38:54.690Z,100309.65
2017-12-24T05:41:23.536Z,100303.31
2017-12-24T05:43:52.994Z,100293.95
2017-12-24T05:46:21.681Z,100285.41
2017-12-24T05:48:50.366Z,100294.09
2017-12-24T05:51:18.942Z,100298.28
2017-12-24T05:53:47.628Z,100305.66
2017-12-24T05:56:16.314Z,100304.91
2017-12-24T05:58:44.902Z,100297.04
2017-12-24T06:01:13.578Z,100303.08
2017-12-24T06:03:42.275Z,100297.62
2017-12-24T06:06:10.960Z,100296.34
2017-12-24T06:08:39.584Z,100283.57
2017-12-24T06:11:09.142Z,100286.23
2017-12-24T06:13:37.839Z,100287.76
2017-12-24T06:16:06.525Z,100296.73
2017-12-24T06:18:35.251Z,100296.70
2017-12-24T06:21:04.670Z,100294.77
2017-12-24T06:23:33.395Z,100293.20
2017-12-24T06:26:02.080Z,100291.78
2017-12-24T06:28:30.767Z,100300.30
2017-12-24T06:30:59.415Z,100292.08
2017-12-24T06:33:28.408Z,100293.48
2017-12-24T06:35:57.131Z,100296.45
2017-12-24T06:38:25.818Z,100297.05
2017-12-24T06:40:54.761Z,100294.24
2017-12-24T06:43:24.221Z,100289.48
2017-12-24T06:45:52.914Z,100292.95
2017-12-24T06:48:21.664Z,100305.67
2017-12-24T06:50:50.378Z,100304.61
2017-12-24T06:53:19.062Z,100298.45
2017-12-24T06:55:47.749Z,100300.45
2017-12-24T06:58:16.384Z,100294.56
2017-12-24T07:00:45.874Z,100298.00
2017-12-24T07:03:14.527Z,100299.72
2017-12-24T07:05:43.206Z,100291.53
2017-12-24T07:08:13.023Z,100295.95
2017-12-24T07:10:41.808Z,100293.81
2017-12-24T07:13:10.641Z,100292.75
2017-12-24T07:15:40.106Z,100299.97
2017-12-24T07:18:08.776Z,100294.49
2017-12-24T07:20:37.369Z,100289.70
2017-12-24T07:23:06.054Z,100297.98
2017-12-24T07:25:34.681Z,100294.59
2017-12-24T07:28:04.141Z,100287.67
2017-12-24T07:30:32.924Z,100296.23
2017-12-24T07:33:01.610Z,100298.14
2017-12-24T07:35:30.250Z,100290.63
2017-12-24T07:37:59.868Z,100279.65
2017-12-24T07:40:28.589Z,100268.47
2017-12-24T07:42:57.229Z,100258.08
2017-12-24T07:45:26.847Z,100268.45
2017-12-24T07:47:55.469Z,100276.03
2017-12-24T07:50:24.066Z,100275.48
2017-12-24T07:52:52.940Z,100282.45
2017-12-24T07:55:21.528Z,100267.89
2017-12-24T07:57:50.213Z,100271.03
2017-12-24T08:00:19.207Z,100274.95
2017-12-24T08:02:47.850Z,100281.73
2017-12-24T08:05:16.578Z,100293.19
2017-12-24T08:07:45.289Z,100313.20
2017-12-24T08:10:14.048Z,100303.36
2017-12-24T08:12:42.734Z,100297.93
2017-12-24T08:15:11.685Z,100288.95
2017-12-24T08:17:40.314Z,100289.47
2017-12-24T08:20:08.901Z,100289.97
2017-12-24T08:22:37.576Z,100292.12
2017-12-24T08:25:06.254Z,100289.69
2017-12-24T08:27:34.896Z,100284.19
2017-12-24T08:30:04.972Z,100283.61
2017-12-24T08:32:33.610Z,100283.06
2017-12-24T08:35:03.057Z,100278.12
2017-12-24T08:37:31.843Z,100272.95
2017-12-24T08:40:00.539Z,100269.53
2017-12-24T08:42:29.233Z,100278.93
2017-12-24T08:44:58.009Z,100267.70
2017-12-24T08:47:26.547Z,100270.80
2017-12-24T08:49:55.995Z,100262.91
2017-12-24T08:52:24.779Z,100259.41
2017-12-24T08:54:53.422Z,100258.03
2017-12-24T08:57:22.151Z,100267.47
2017-12-24T08:59:50.946Z,100255.14
2017-12-24T09:02:19.632Z,100246.41
2017-12-24T09:04:48.319Z,100250.84
2017-12-24T09:07:17.166Z,100246.08
2017-12-24T09:09:45.852Z,100242.27
2017-12-24T09:12:14.520Z,100227.99
2017-12-24T09:14:43.984Z,100246.97
2017-12-24T09:17:12.652Z,100241.81
2017-12-24T09:19:41.295Z,100234.30
2017-12-24T09:22:11.019Z,100231.55
2017-12-24T09:24:39.943Z,100231.47
2017-12-24T09:27:08.641Z,100222.05
2017-12-24T09:29:37.494Z,100214.81
2017-12-24T09:32:06.216Z,100209.92
2017-12-24T09:34:34.855Z,100199.02
2017-12-24T09:37:03.692Z,100205.14
2017-12-24T09:39:32.362Z,100194.66
2017-12-24T09:42:01.005Z,100205.23
2017-12-24T09:44:30.476Z,100195.77
2017-12-24T09:46:59.038Z,100208.08
2017-12-24T09:49:27.731Z,100199.59
2017-12-24T09:51:56.828Z,100201.38
2017-12-24T09:54:25.615Z,100201.23
2017-12-24T09:56:54.233Z,100187.65
2017-12-24T09:59:23.707Z,100196.20
2017-12-24T10:01:52.394Z,100194.99
2017-12-24T10:04:20.968Z,100189.64
2017-12-24T10:06:49.765Z,100184.37
2017-12-24T10:09:18.550Z,100176.84
2017-12-24T10:11:47.104Z,100165.31
2017-12-24T10:14:16.020Z,100168.44
2017-12-24T10:16:44.657Z,100156.44
2017-12-24T10:19:14.115Z,100155.89
2017-12-24T10:21:43.267Z,100151.77
2017-12-24T10:24:11.993Z,100149.05
2017-12-24T10:26:40.627Z,100158.40
2017-12-24T10:29:10.146Z,100138.80
2017-12-24T10:31:38.873Z,100139.66
2017-12-24T10:34:07.559Z,100137.86
2017-12-24T10:36:36.343Z,100125.66
2017-12-24T10:39:05.028Z,100112.16
2017-12-24T10:41:33.659Z,100111.71
2017-12-24T10:44:03.277Z,100115.00
2017-12-24T10:46:32.769Z,100107.54
2017-12-24T10:49:02.188Z,100094.17
2017-12-24T10:51:30.916Z,100097.22
2017-12-24T10:53:59.548Z,100087.81
2017-12-24T10:56:29.018Z,100083.34
2017-12-24T10:58:57.859Z,100087.27
2017-12-24T11:01:26.580Z,100089.19
2017-12-24T11:03:55.311Z,100094.56
2017-12-24T11:06:24.872Z,100099.43
2017-12-24T11:08:53.608Z,100099.48
2017-12-24T11:11:22.355Z,100089.76
2017-12-24T11:13:51.140Z,100091.42
2017-12-24T11:16:19.826Z,100100.30
2017-12-24T11:18:48.405Z,100093.48
2017-12-24T11:21:17.089Z,100088.63
2017-12-24T11:23:45.732Z,100084.92
2017-12-24T11:26:15.183Z,100083.55
2017-12-24T11:28:43.968Z,100086.50
2017-12-24T11:31:12.614Z,100076.54
2017-12-24T11:33:41.165Z,100061.37
2017-12-24T11:36:09.874Z,100064.16
2017-12-24T11:38:39.326Z,100058.01
2017-12-24T11:41:08.011Z,100059.40
2017-12-24T11:43:36.696Z,100063.47
2017-12-24T11:46:05.345Z,100079.02
2017-12-24T11:48:34.058Z,100082.84
2017-12-24T11:51:03.219Z,100073.50
2017-12-24T11:53:31.947Z,100079.47
2017-12-24T11:56:00.569Z,100094.20
2017-12-24T11:58:30.108Z,100085.28
2017-12-24T12:00:58.716Z,100082.55
2017-12-24T12:03:27.260Z,100085.63
2017-12-24T12:05:56.297Z,100080.03
2017-12-24T12:08:24.983Z,100079.91
2017-12-24T12:10:53.648Z,100082.77
2017-12-24T12:13:22.715Z,100088.52
2017-12-24T12:15:51.446Z,100078.83
2017-12-24T12:18:20.077Z,100070.68
2017-12-24T12:20:49.694Z,100077.80
2017-12-24T12:23:18.425Z,100075.48
2017-12-24T12:25:47.015Z,100082.30
2017-12-24T12:28:16.110Z,100085.78
2017-12-24T12:30:44.657Z,100092.42
2017-12-24T12:33:13.269Z,100104.44
2017-12-24T12:35:42.227Z,100102.70
2017-12-24T12:38:11.670Z,100106.78
2017-12-24T12:40:40.356Z,100107.34
2017-12-24T12:43:09.141Z,100114.38
2017-12-24T12:45:37.825Z,100124.36
2017-12-24T12:48:06.512Z,100116.57
2017-12-24T12:50:35.205Z,100116.39
2017-12-24T12:53:03.897Z,100104.23
2017-12-24T12:55:35.180Z,100104.77
2017-12-24T12:58:04.910Z,100103.56
2017-12-24T13:00:33.627Z,100094.56
2017-12-24T13:03:02.272Z,100091.91
2017-12-24T13:05:30.999Z,100078.11
2017-12-24T13:07:59.633Z,100094.81
2017-12-24T13:10:29.094Z,100101.47
2017-12-24T13:12:57.978Z,100099.16
2017-12-24T13:15:26.611Z,100094.56
2017-12-24T13:17:56.025Z,100103.10
2017-12-24T13:20:25.825Z,100100.12
2017-12-24T13:22:55.234Z,100098.13
2017-12-24T13:25:24.683Z,100112.09
2017-12-24T13:27:53.779Z,100120.37
2017-12-24T13:30:23.387Z,100139.08
2017-12-24T13:32:51.973Z,100134.84
2017-12-24T13:35:20.659Z,100151.33
2017-12-24T13:37:49.345Z,100148.89
2017-12-24T13:40:17.987Z,100160.88
2017-12-24T13:42:47.028Z,100158.97
2017-12-24T13:45:15.605Z,100157.09
2017-12-24T13:47:44.156Z,100160.86
2017-12-24T13:50:13.133Z,100163.19
2017-12-24T13:52:42.590Z,100166.14
2017-12-24T13:55:11.279Z,100163.64
2017-12-24T13:57:40.012Z,100166.89
2017-12-24T14:00:09.429Z,100175.72
2017-12-24T14:02:38.097Z,100187.23
2017-12-24T14:05:08.015Z,100186.23
2017-12-24T14:07:36.747Z,100190.79
2017-12-24T14:10:05.447Z,100195.90
2017-12-24T14:12:34.325Z,100188.72
2017-12-24T14:15:02.912Z,100195.00
2017-12-24T14:17:31.598Z,100208.55
2017-12-24T14:20:00.383Z,100213.71
2017-12-24T14:22:29.070Z,100219.29
2017-12-24T14:24:57.706Z,100223.34
2017-12-24T14:27:27.299Z,100231.68
2017-12-24T14:29:56.761Z,100234.42
2017-12-24T14:32:25.409Z,100228.49
2017-12-24T14:34:54.133Z,100228.88
2017-12-24T14:37:22.818Z,100225.33
2017-12-24T14:39:51.504Z,100233.47
2017-12-24T14:42:20.096Z,100235.06
2017-12-24T14:44:48.776Z,100240.42
2017-12-24T14:47:17.416Z,100258.66
2017-12-24T14:49:47.332Z,100278.78
2017-12-24T14:52:16.776Z,100278.56
2017-12-24T14:54:45.419Z,100289.09
2017-12-24T14:57:14.152Z,100284.98
2017-12-24T14:59:42.779Z,100287.91
2017-12-24T15:02:12.243Z,100298.08
2017-12-24T15:04:41.030Z,100294.87
2017-12-24T15:07:16.209Z,100287.55
2017-12-24T15:09:45.773Z,100284.41
2017-12-24T15:12:14.447Z,100304.13
2017-12-24T15:14:43.145Z,100295.30
2017-12-24T15:17:11.878Z,100302.63
2017-12-24T15:19:41.338Z,100308.84
2017-12-24T15:22:09.960Z,100298.93
2017-12-24T15:24:39.431Z,100291.39
2017-12-24T15:27:07.993Z,100290.78
2017-12-24T15:29:36.688Z,100287.39
2017-12-24T15:32:08.354Z,100287.24
2017-12-24T15:34:37.052Z,100297.83
2017-12-24T15:37:05.826Z,100313.82
2017-12-24T15:39:34.459Z,100322.34
2017-12-24T15:42:03.912Z,100326.72
2017-12-24T15:44:32.695Z,100335.28
2017-12-24T15:47:01.282Z,100339.89
2017-12-24T15:49:29.958Z,100340.86
2017-12-24T15:51:58.863Z,100341.66
2017-12-24T15:54:27.490Z,100349.11
2017-12-24T15:56:56.947Z,100358.44
2017-12-24T15:59:25.680Z,100351.73
2017-12-24T16:01:55.142Z,100345.75
2017-12-24T16:04:23.716Z,100339.84
2017-12-24T16:06:52.406Z,100342.42
2017-12-24T16:09:21.089Z,100343.73
2017-12-24T16:11:49.775Z,100343.48
2017-12-24T16:14:18.570Z,100333.64
2017-12-24T16:16:47.251Z,100327.48
2017-12-24T16:19:15.942Z,100323.52
2017-12-24T16:21:44.567Z,100328.55
2017-12-24T16:24:13.981Z,100333.75
2017-12-24T16:26:43.471Z,100345.77
2017-12-24T16:29:12.941Z,100353.61
2017-12-24T16:31:41.780Z,100340.22
2017-12-24T16:34:11.229Z,100344.34
2017-12-24T16:36:40.170Z,100340.88
2017-12-24T16:39:09.620Z,100343.21
2017-12-24T16:41:38.306Z,100343.73
2017-12-24T16:44:07.101Z,100338.18
2017-12-24T16:46:35.634Z,100327.06
2017-12-24T16:49:04.363Z,100339.05
2017-12-24T16:51:33.147Z,100322.96
2017-12-24T16:54:01.846Z,100325.72
2017-12-24T16:56:30.483Z,100310.78
2017-12-24T16:59:00.178Z,100310.98
2017-12-24T17:01:29.597Z,100309.25
2017-12-24T17:03:58.433Z,100318.81
2017-12-24T17:06:27.282Z,100329.39
2017-12-24T17:08:56.001Z,100331.56
2017-12-24T17:11:24.687Z,100346.02
2017-12-24T17:13:53.288Z,100365.28
2017-12-24T17:16:21.978Z,100379.97
2017-12-24T17:18:50.694Z,100392.26
2017-12-24T17:21:20.559Z,100397.30
2017-12-24T17:23:49.190Z,100409.34
2017-12-24T17:26:17.932Z,100420.73
2017-12-24T17:28:46.925Z,100424.41
2017-12-24T17:31:15.616Z,100429.25
2017-12-24T17:33:44.297Z,100424.50
2017-12-24T17:36:13.181Z,100426.91
2017-12-24T17:38:41.876Z,100433.74
2017-12-24T17:41:10.453Z,100426.64
2017-12-24T17:43:39.397Z,100432.00
2017-12-24T17:46:08.133Z,100428.73
2017-12-24T17:48:36.783Z,100428.06
2017-12-24T17:51:05.507Z,100426.59
2017-12-24T17:53:34.168Z,100430.11
2017-12-24T17:56:02.835Z,100434.95
2017-12-24T17:58:31.869Z,100440.91
2017-12-24T18:01:00.553Z,100447.81
2017-12-24T18:03:29.189Z,100448.81
2017-12-24T18:05:58.641Z,100459.56
2017-12-24T18:08:27.335Z,100466.80
2017-12-24T18:10:55.912Z,100463.17
2017-12-24T18:13:24.760Z,100459.61
2017-12-24T18:15:54.203Z,100467.41
2017-12-24T18:18:22.899Z,100463.58
2017-12-24T18:20:51.738Z,100466.17
2017-12-24T18:23:21.185Z,100465.71
2017-12-24T18:25:49.823Z,100468.44
2017-12-24T18:28:18.818Z,100470.06
2017-12-24T18:30:47.548Z,100480.96
2017-12-24T18:33:16.134Z,100483.95
2017-12-24T18:35:46.019Z,100488.30
2017-12-24T18:38:14.566Z,100493.70
2017-12-24T18:40:43.323Z,100509.62
2017-12-24T18:43:12.048Z,100515.02
2017-12-24T18:45:41.510Z,100514.58
2017-12-24T18:48:10.158Z,100517.38
2017-12-24T18:50:39.150Z,100515.63
2017-12-24T18:53:07.873Z,100510.12
2017-12-24T18:55:36.511Z,100509.53
2017-12-24T18:58:06.452Z,100517.80
2017-12-24T19:00:35.158Z,100528.92
2017-12-24T19:03:03.790Z,100541.11
2017-12-24T19:05:33.332Z,100542.19
2017-12-24T19:08:02.040Z,100537.53
2017-12-24T19:10:30.732Z,100542.22
2017-12-24T19:12:59.660Z,100543.58
2017-12-24T19:15:29.116Z,100538.30
2017-12-24T19:17:57.705Z,100544.38
2017-12-24T19:20:26.438Z,100548.86
2017-12-24T19:22:55.900Z,100545.91
2017-12-24T19:25:27.142Z,100546.68
2017-12-24T19:27:55.731Z,100551.23
2017-12-24T19:30:24.303Z,100549.14
2017-12-24T19:32:53.100Z,100553.61
2017-12-24T19:35:21.741Z,100560.14
2017-12-24T19:37:50.470Z,100566.48
2017-12-24T19:40:19.205Z,100572.70
2017-12-24T19:42:48.657Z,100580.30
2017-12-24T19:45:17.339Z,100588.41
2017-12-24T19:47:46.031Z,100593.45
2017-12-24T19:50:14.676Z,100599.31
2017-12-24T19:52:43.397Z,100603.17
2017-12-24T19:55:13.059Z,100603.88
2017-12-24T19:57:42.415Z,100607.72
2017-12-24T20:00:11.095Z,100614.47
2017-12-24T20:02:39.944Z,100618.33
2017-12-24T20:05:08.672Z,100627.25
2017-12-24T20:07:37.301Z,100624.05
2017-12-24T20:10:06.963Z,100619.66
2017-12-24T20:12:35.649Z,100617.52
2017-12-24T20:15:04.333Z,100608.70
2017-12-24T20:17:33.473Z,100619.71
2017-12-24T20:20:02.837Z,100627.56
2017-12-24T20:22:31.423Z,100632.69
2017-12-24T20:25:00.109Z,100636.09
2017-12-24T20:27:29.662Z,100639.38
2017-12-24T20:29:58.362Z,100638.52
2017-12-24T20:32:27.079Z,100645.49
2017-12-24T20:34:56.540Z,100648.88
2017-12-24T20:37:25.162Z,100643.28
2017-12-24T20:39:54.682Z,100638.84
2017-12-24T20:42:23.410Z,100639.35
2017-12-24T20:44:52.046Z,100637.10
2017-12-24T20:47:21.088Z,100634.77
2017-12-24T20:49:49.677Z,100644.34
2017-12-24T20:52:18.224Z,100652.55
2017-12-24T20:54:47.146Z,100669.53
2017-12-24T20:57:15.782Z,100679.57
2017-12-24T20:59:45.242Z,100673.19
2017-12-24T21:02:13.916Z,100668.00
2017-12-24T21:04:42.607Z,100671.54
2017-12-24T21:07:11.253Z,100667.23
2017-12-24T21:09:40.022Z,100653.27
2017-12-24T21:12:09.439Z,100667.02
2017-12-24T21:14:38.169Z,100672.23
2017-12-24T21:17:07.064Z,100662.84
2017-12-24T21:19:35.645Z,100657.41
2017-12-24T21:22:04.196Z,100654.92
2017-12-24T21:24:33.177Z,100668.29
2017-12-24T21:27:01.905Z,100664.55
2017-12-24T21:29:30.491Z,100660.51
2017-12-24T21:31:59.486Z,100659.25
2017-12-24T21:34:28.124Z,100656.02
2017-12-24T21:36:57.570Z,100659.59
2017-12-24T21:39:26.305Z,100660.91
2017-12-24T21:41:55.765Z,100655.50
2017-12-24T21:44:24.451Z,100656.61
2017-12-24T21:46:53.234Z,100660.39
2017-12-24T21:49:21.920Z,100661.78
2017-12-24T21:51:50.607Z,100671.07
2017-12-24T21:54:19.614Z,100668.81
2017-12-24T21:56:48.330Z,100672.39
2017-12-24T21:59:17.795Z,100672.76
2017-12-24T22:01:46.579Z,100673.01
2017-12-24T22:04:15.265Z,100675.78
2017-12-24T22:06:44.872Z,100683.39
2017-12-24T22:09:14.022Z,100699.25
2017-12-24T22:11:43.376Z,100695.22
2017-12-24T22:14:11.961Z,100696.68
2017-12-24T22:16:40.801Z,100691.59
2017-12-24T22:19:09.838Z,100695.27
2017-12-24T22:21:38.526Z,100687.02
2017-12-24T22:24:07.627Z,100693.00
2017-12-24T22:26:36.311Z,100697.73
2017-12-24T22:29:04.999Z,100714.53
2017-12-24T22:31:33.682Z,100699.86
2017-12-24T22:34:02.369Z,100696.80
2017-12-24T22:36:31.055Z,100694.16
2017-12-24T22:38:59.786Z,100696.39
2017-12-24T22:41:29.095Z,100691.21
2017-12-24T22:43:58.539Z,100695.77
2017-12-24T22:46:27.714Z,100702.71
2017-12-24T22:48:56.382Z,100696.30
2017-12-24T22:51:25.825Z,100687.13
2017-12-24T22:53:55.027Z,100684.98
2017-12-24T22:56:23.661Z,100687.22
2017-12-24T22:58:53.079Z,100687.82
2017-12-24T23:01:21.798Z,100686.67
2017-12-24T23:03:50.483Z,100685.17
2017-12-24T23:06:19.131Z,100683.70
2017-12-24T23:08:47.855Z,100688.03
2017-12-24T23:11:16.540Z,100693.46
2017-12-24T23:13:45.227Z,100703.00
2017-12-24T23:16:14.022Z,100701.41
2017-12-24T23:18:42.708Z,100697.14
2017-12-24T23:21:11.437Z,100695.80
2017-12-24T23:23:41.155Z,100696.11
2017-12-24T23:26:09.848Z,100702.23
2017-12-24T23:28:38.571Z,100696.41
2017-12-24T23:31:07.255Z,100698.27
2017-12-24T23:33:35.942Z,100700.91
2017-12-24T23:36:04.529Z,100711.20
2017-12-24T23:38:33.314Z,100710.79
2017-12-24T23:41:02.005Z,100721.01
2017-12-24T23:43:30.686Z,100718.13
2017-12-24T23:45:59.679Z,100712.97
2017-12-24T23:48:28.283Z,100707.23
2017-12-24T23:50:56.951Z,100703.13
2017-12-24T23:53:25.947Z,100704.09
2017-12-24T23:55:55.360Z,100705.56
2017-12-24T23:58:24.031Z,100710.96
